Time;durP1;ratioP1;P1;durP2;ratioP2;P2;SDS_P1;SDS_P2;PMS_P1;PMS_P2;Temp;Humidity;BMP_temperature;BMP_pressure;BME280_temperature;BME280_humidity;BME280_pressure;Samples;Min_cycle;Max_cycle;Signal;HPM_P1;HPM_P2
2021/06/01 00:00:12;;;;;;;5.40;4.80;;;13.70;1.00;;;;;;5091438;28;20177;-60
2021/06/01 00:02:38;;;;;;;6.37;5.10;;;13.70;1.00;;;;;;5090581;28;20175;-60
2021/06/01 00:05:06;;;;;;;5.47;4.97;;;13.60;1.00;;;;;;5091747;28;20841;-60
2021/06/01 00:07:32;;;;;;;6.03;5.40;;;13.70;1.00;;;;;;5088742;28;20191;-60
2021/06/01 00:09:57;;;;;;;5.93;5.43;;;13.60;1.00;;;;;;5091895;28;20444;-60
2021/06/01 00:12:23;;;;;;;6.33;5.17;;;13.60;1.00;;;;;;5091836;28;20979;-60
2021/06/01 00:14:49;;;;;;;6.00;5.40;;;13.50;1.00;;;;;;5091474;28;20216;-60
2021/06/01 00:17:14;;;;;;;5.70;5.17;;;13.50;1.00;;;;;;5089830;28;20566;-58
2021/06/01 00:19:40;;;;;;;6.73;5.57;;;13.50;1.00;;;;;;5091696;28;20777;-60
2021/06/01 00:22:06;;;;;;;6.30;5.43;;;13.40;1.00;;;;;;5089720;28;20206;-60
2021/06/01 00:24:33;;;;;;;5.57;5.10;;;13.40;1.00;;;;;;5085823;28;20180;-60
2021/06/01 00:26:59;;;;;;;6.10;5.50;;;13.40;1.00;;;;;;5080490;28;20174;-60
2021/06/01 00:29:24;;;;;;;7.27;5.13;;;13.40;1.00;;;;;;5090321;28;20494;-60
2021/06/01 00:31:50;;;;;;;6.70;5.50;;;13.40;1.00;;;;;;5088809;28;20182;-60
2021/06/01 00:34:15;;;;;;;6.63;5.57;;;13.30;1.00;;;;;;5088538;28;20182;-60
2021/06/01 00:36:41;;;;;;;6.07;5.30;;;13.20;1.00;;;;;;5093252;28;20675;-61
2021/06/01 00:39:07;;;;;;;7.10;6.40;;;13.20;1.00;;;;;;5110895;28;20611;-61
2021/06/01 00:41:33;;;;;;;6.30;5.70;;;13.30;1.00;;;;;;5110829;28;20233;-60
2021/06/01 00:44:00;;;;;;;7.20;6.27;;;13.30;1.00;;;;;;5110606;28;20463;-59
2021/06/01 00:46:25;;;;;;;7.93;5.43;;;13.30;1.00;;;;;;5104542;28;20175;-59
2021/06/01 00:48:51;;;;;;;7.50;5.50;;;13.20;1.00;;;;;;5087164;28;20912;-60
2021/06/01 00:51:17;;;;;;;7.43;6.17;;;13.20;1.00;;;;;;5110393;28;20193;-59
2021/06/01 00:53:43;;;;;;;7.03;6.30;;;13.20;1.00;;;;;;5110268;28;20185;-60
2021/06/01 00:56:09;;;;;;;7.17;6.07;;;13.20;1.00;;;;;;5094783;28;20441;-59
2021/06/01 00:58:34;;;;;;;7.90;5.67;;;13.10;1.00;;;;;;5107963;28;20201;-59
2021/06/01 01:03:38;;;;;;;9.53;5.63;;;13.10;1.00;;;;;;5110218;28;20182;-59
2021/06/01 01:06:18;;;;;;;6.90;5.23;;;13.00;1.00;;;;;;5110098;28;20439;-61
2021/06/01 01:08:55;;;;;;;6.13;4.70;;;12.90;1.00;;;;;;5091841;28;20474;-59
2021/06/01 01:11:36;;;;;;;8.73;5.30;;;12.90;1.00;;;;;;5110041;28;20439;-60
2021/06/01 01:14:10;;;;;;;6.03;4.87;;;12.80;1.00;;;;;;5091572;28;20444;-59
2021/06/01 01:16:40;;;;;;;5.43;4.70;;;12.80;1.00;;;;;;5110443;28;20478;-59
2021/06/01 01:19:15;;;;;;;5.33;4.83;;;12.80;1.00;;;;;;5091653;28;20450;-60
2021/06/01 01:21:52;;;;;;;6.57;5.10;;;12.80;1.00;;;;;;5109848;28;20961;-60
2021/06/01 01:24:58;;;;;;;5.57;5.03;;;12.80;1.00;;;;;;5109525;28;20435;-60
2021/06/01 01:27:29;;;;;;;5.17;4.67;;;12.70;1.00;;;;;;5109798;28;20800;-59
2021/06/01 01:29:58;;;;;;;5.67;5.10;;;12.60;1.00;;;;;;5110133;28;20539;-59
2021/06/01 01:32:28;;;;;;;5.90;5.00;;;12.60;1.00;;;;;;5109947;28;20462;-61
2021/06/01 01:34:57;;;;;;;5.63;5.13;;;12.70;1.00;;;;;;5091481;28;20912;-59
2021/06/01 01:37:25;;;;;;;5.53;4.73;;;12.70;1.00;;;;;;5109713;28;20561;-58
2021/06/01 01:39:55;;;;;;;6.00;5.40;;;12.70;1.00;;;;;;5109888;28;20440;-59
2021/06/01 01:42:22;;;;;;;6.33;4.63;;;12.70;1.00;;;;;;5109838;28;20761;-60
2021/06/01 01:44:50;;;;;;;7.57;5.60;;;12.60;1.00;;;;;;5106097;28;20485;-60
2021/06/01 01:50:07;;;;;;;7.70;4.63;;;12.50;1.00;;;;;;5110019;28;20520;-61
2021/06/01 01:52:38;;;;;;;5.93;4.50;;;12.50;1.00;;;;;;5108804;28;20550;-60
2021/06/01 01:55:07;;;;;;;9.30;4.50;;;12.50;1.00;;;;;;5109928;28;20447;-58
2021/06/01 01:57:35;;;;;;;5.47;4.80;;;12.30;1.00;;;;;;5109905;28;20440;-60
2021/06/01 02:00:07;;;;;;;5.83;4.50;;;12.20;1.00;;;;;;5091464;28;20576;-60
2021/06/01 02:02:32;;;;;;;6.20;5.60;;;12.30;1.00;;;;;;5109884;28;21013;-60
2021/06/01 02:04:59;;;;;;;4.97;4.43;;;12.20;1.00;;;;;;5109926;28;20463;-60
2021/06/01 02:07:25;;;;;;;7.70;4.70;;;12.20;1.00;;;;;;5113557;28;20784;-61
2021/06/01 02:09:51;;;;;;;5.10;4.50;;;12.20;1.00;;;;;;5113619;28;20438;-60
2021/06/01 02:12:16;;;;;;;5.10;4.60;;;12.20;1.00;;;;;;5113492;28;20435;-60
2021/06/01 02:14:42;;;;;;;5.63;5.10;;;12.10;1.00;;;;;;5103843;28;20230;-59
2021/06/01 02:17:07;;;;;;;4.70;4.30;;;12.10;1.00;;;;;;5113620;28;20655;-59
2021/06/01 02:19:33;;;;;;;5.30;4.80;;;12.10;1.00;;;;;;5094323;28;20190;-60
2021/06/01 02:22:28;;;;;;;5.50;4.60;;;12.10;1.00;;;;;;5113252;28;20189;-59
2021/06/01 02:25:09;;;;;;;5.00;4.50;;;12.00;1.00;;;;;;5113272;28;20207;-61
2021/06/01 02:27:43;;;;;;;6.20;5.03;;;12.10;1.00;;;;;;5112581;28;20688;-59
2021/06/01 02:30:12;;;;;;;5.60;4.70;;;12.00;1.00;;;;;;5112753;28;20796;-59
2021/06/01 02:32:44;;;;;;;5.17;4.20;;;12.00;1.00;;;;;;5113295;28;20435;-60
2021/06/01 02:35:18;;;;;;;6.10;4.80;;;12.00;1.00;;;;;;5112931;28;20431;-60
2021/06/01 02:37:46;;;;;;;5.27;4.77;;;11.90;1.00;;;;;;5112359;28;20546;-60
2021/06/01 02:40:15;;;;;;;4.67;4.27;;;11.90;1.00;;;;;;5112306;28;20438;-59
2021/06/01 02:42:42;;;;;;;6.20;4.77;;;11.80;1.00;;;;;;5110501;28;20444;-59
2021/06/01 02:45:11;;;;;;;6.27;4.80;;;11.80;1.00;;;;;;5097145;28;20444;-60
2021/06/01 02:47:37;;;;;;;7.97;5.00;;;11.80;1.00;;;;;;5112790;28;20435;-60
2021/06/01 02:50:08;;;;;;;5.67;5.03;;;11.80;1.00;;;;;;5111913;28;20824;-60
2021/06/01 02:52:34;;;;;;;5.33;4.83;;;11.70;1.00;;;;;;5094217;28;20478;-59
2021/06/01 02:55:02;;;;;;;4.80;4.40;;;11.80;1.00;;;;;;5108237;28;20429;-60
2021/06/01 02:57:28;;;;;;;5.30;4.57;;;11.80;1.00;;;;;;5104753;28;20451;-60
2021/06/01 02:59:54;;;;;;;5.70;5.17;;;11.90;1.00;;;;;;5111939;28;20501;-60
2021/06/01 03:02:19;;;;;;;5.53;3.90;;;11.90;1.00;;;;;;5111891;28;20210;-59
2021/06/01 03:04:50;;;;;;;8.50;5.60;;;11.80;1.00;;;;;;5112110;28;20456;-59
2021/06/01 03:07:16;;;;;;;6.03;4.20;;;11.80;1.00;;;;;;5111527;28;20185;-60
2021/06/01 03:09:42;;;;;;;4.83;4.30;;;11.80;1.00;;;;;;5112461;28;20448;-59
2021/06/01 03:12:09;;;;;;;6.53;4.90;;;11.80;1.00;;;;;;5111814;28;20449;-59
2021/06/01 03:14:34;;;;;;;5.93;4.70;;;11.70;1.00;;;;;;5112958;28;20573;-60
2021/06/01 03:17:00;;;;;;;5.20;4.67;;;11.60;1.00;;;;;;5108580;28;20439;-60
2021/06/01 03:19:25;;;;;;;6.80;4.50;;;11.60;1.00;;;;;;5112375;28;20213;-60
2021/06/01 03:21:51;;;;;;;7.00;5.10;;;11.60;1.00;;;;;;5112020;28;20684;-59
2021/06/01 03:24:16;;;;;;;5.80;4.77;;;11.60;1.00;;;;;;5112009;28;20192;-60
2021/06/01 03:26:42;;;;;;;5.37;4.87;;;11.60;1.00;;;;;;5112129;28;20666;-59
2021/06/01 03:29:07;;;;;;;5.13;4.10;;;11.60;1.00;;;;;;5112387;28;20185;-59
2021/06/01 03:31:33;;;;;;;4.47;4.07;;;11.80;1.00;;;;;;5111905;28;20198;-60
2021/06/01 03:33:59;;;;;;;6.40;4.20;;;12.00;1.00;;;;;;5111663;28;20197;-60
2021/06/01 03:36:24;;;;;;;5.13;4.20;;;12.20;1.00;;;;;;5112058;28;20259;-60
2021/06/01 03:38:51;;;;;;;5.10;4.13;;;12.40;1.00;;;;;;5112159;28;20193;-60
2021/06/01 03:41:17;;;;;;;4.80;4.27;;;12.70;1.00;;;;;;5111849;28;20202;-60
2021/06/01 03:43:43;;;;;;;5.90;4.53;;;12.80;1.00;;;;;;5093531;28;20439;-59
2021/06/01 03:46:08;;;;;;;4.47;4.07;;;12.90;1.00;;;;;;5109155;28;20806;-60
2021/06/01 03:48:34;;;;;;;5.67;5.07;;;12.90;1.00;;;;;;5111172;28;20652;-60
2021/06/01 03:50:59;;;;;;;5.43;4.03;;;12.90;1.00;;;;;;5093746;28;20239;-60
2021/06/01 03:53:28;;;;;;;5.50;4.23;;;12.70;1.00;;;;;;5111521;28;20651;-59
2021/06/01 03:55:54;;;;;;;7.03;4.17;;;12.60;1.00;;;;;;5091702;28;20273;-59
2021/06/01 03:58:20;;;;;;;6.23;4.27;;;12.50;1.00;;;;;;5111260;28;20581;-59
2021/06/01 04:00:46;;;;;;;8.80;5.20;;;12.40;1.00;;;;;;5110424;28;20197;-60
2021/06/01 04:03:11;;;;;;;11.10;6.40;;;12.40;1.00;;;;;;5111479;28;20479;-59
2021/06/01 04:05:37;;;;;;;4.93;4.30;;;12.30;1.00;;;;;;5111353;28;20276;-60
2021/06/01 04:08:05;;;;;;;5.83;4.40;;;12.30;1.00;;;;;;5111224;28;20179;-62
2021/06/01 04:10:32;;;;;;;5.53;4.90;;;12.40;1.00;;;;;;5110288;28;20205;-61
2021/06/01 04:12:58;;;;;;;7.37;5.20;;;12.40;1.00;;;;;;5110611;28;20554;-61
2021/06/01 04:15:23;;;;;;;5.83;4.73;;;12.40;1.00;;;;;;5110829;28;20448;-62
2021/06/01 04:17:49;;;;;;;6.67;5.07;;;14.20;1.00;;;;;;5110566;28;20182;-62
2021/06/01 04:20:14;;;;;;;5.17;4.40;;;12.40;1.00;;;;;;5110170;28;20194;-63
2021/06/01 04:22:40;;;;;;;5.60;5.00;;;12.40;1.00;;;;;;5093190;28;20182;-63
2021/06/01 04:25:07;;;;;;;4.73;4.30;;;12.50;1.00;;;;;;5110648;28;20188;-62
2021/06/01 04:27:33;;;;;;;5.87;5.03;;;12.60;1.00;;;;;;5111031;28;20536;-62
2021/06/01 04:29:58;;;;;;;7.20;4.47;;;12.60;1.00;;;;;;5110256;28;20469;-63
2021/06/01 04:32:24;;;;;;;5.73;4.70;;;16.10;1.00;;;;;;5110829;28;20948;-63
2021/06/01 04:34:49;;;;;;;8.27;5.37;;;12.60;1.00;;;;;;5089351;28;20185;-63
2021/06/01 04:37:15;;;;;;;7.23;5.10;;;12.70;1.00;;;;;;5096168;28;20293;-63
2021/06/01 04:39:41;;;;;;;5.00;4.50;;;12.80;1.00;;;;;;5111214;28;20523;-64
2021/06/01 04:42:06;;;;;;;5.40;4.90;;;12.80;1.00;;;;;;5110484;28;20681;-63
2021/06/01 04:44:32;;;;;;;6.00;4.57;;;12.80;1.00;;;;;;5110643;28;20193;-63
2021/06/01 04:46:57;;;;;;;5.50;4.70;;;12.90;1.00;;;;;;5091062;28;20193;-63
2021/06/01 04:49:23;;;;;;;4.53;3.93;;;13.00;1.00;;;;;;5110120;28;20615;-62
2021/06/01 04:51:48;;;;;;;8.63;4.67;;;13.00;1.00;;;;;;5110382;28;20243;-63
2021/06/01 04:54:14;;;;;;;4.77;4.30;;;13.20;1.00;;;;;;5110856;28;20237;-62
2021/06/01 04:56:40;;;;;;;7.73;4.47;;;13.30;1.00;;;;;;5110921;28;20186;-63
2021/06/01 04:59:05;;;;;;;5.17;4.67;;;13.40;1.00;;;;;;5109222;28;20182;-63
2021/06/01 05:01:31;;;;;;;5.83;4.70;;;13.40;1.00;;;;;;5108213;28;20575;-62
2021/06/01 05:03:56;;;;;;;5.60;5.10;;;13.50;1.00;;;;;;5109598;28;20641;-63
2021/06/01 05:06:22;;;;;;;5.23;4.70;;;13.50;1.00;;;;;;5091921;28;20190;-65
2021/06/01 05:08:48;;;;;;;5.50;5.00;;;13.60;1.00;;;;;;5106788;28;20173;-65
2021/06/01 05:11:15;;;;;;;5.57;4.43;;;13.70;1.00;;;;;;5110171;28;20182;-64
2021/06/01 05:13:40;;;;;;;5.40;4.50;;;13.70;1.00;;;;;;5110594;28;20739;-63
2021/06/01 05:16:06;;;;;;;8.10;5.23;;;13.90;1.00;;;;;;5109703;28;20542;-63
2021/06/01 05:18:32;;;;;;;11.40;5.63;;;14.00;1.00;;;;;;5108560;28;20194;-63
2021/06/01 05:20:57;;;;;;;8.37;4.70;;;14.10;1.00;;;;;;5109786;28;20233;-63
2021/06/01 05:23:23;;;;;;;5.57;4.33;;;14.20;1.00;;;;;;5109889;28;20182;-64
2021/06/01 05:25:49;;;;;;;6.07;4.60;;;14.30;1.00;;;;;;5091501;28;20186;-63
2021/06/01 05:28:14;;;;;;;4.80;4.23;;;14.30;1.00;;;;;;5110113;28;20236;-63
2021/06/01 05:33:17;;;;;;;6.07;4.40;;;14.50;1.00;;;;;;5091694;28;20173;-63
2021/06/01 05:35:53;;;;;;;5.40;4.20;;;14.50;1.00;;;;;;5109589;28;20462;-63
2021/06/01 05:38:30;;;;;;;6.80;5.07;;;14.60;1.00;;;;;;5108394;28;20475;-63
2021/06/01 05:40:56;;;;;;;8.23;6.73;;;14.60;1.00;;;;;;5113202;28;20571;-63
2021/06/01 05:43:22;;;;;;;8.17;4.77;;;14.70;1.00;;;;;;5114107;28;20874;-63
2021/06/01 05:45:48;;;;;;;8.67;5.10;;;14.70;1.00;;;;;;5113773;28;20440;-63
2021/06/01 05:48:14;;;;;;;8.93;5.63;;;14.80;1.00;;;;;;5113993;28;20967;-63
2021/06/01 05:50:40;;;;;;;8.83;5.03;;;14.90;1.00;;;;;;5112968;28;20535;-62
2021/06/01 05:53:07;;;;;;;8.10;5.53;;;14.90;1.00;;;;;;5095675;28;20464;-63
2021/06/01 05:55:34;;;;;;;7.67;4.90;;;14.90;1.00;;;;;;5113305;28;20455;-63
2021/06/01 05:57:59;;;;;;;7.33;5.17;;;15.10;1.00;;;;;;5114059;28;20838;-65
2021/06/01 06:00:28;;;;;;;6.23;5.20;;;15.30;1.00;;;;;;5102944;28;20469;-63
2021/06/01 06:02:54;;;;;;;9.43;5.63;;;15.50;1.00;;;;;;5113677;28;20220;-63
2021/06/01 06:05:19;;;;;;;5.50;5.00;;;15.70;1.00;;;;;;5078615;28;20439;-63
2021/06/01 06:07:45;;;;;;;9.17;6.10;;;15.90;1.00;;;;;;5113661;28;20454;-64
2021/06/01 06:10:12;;;;;;;6.63;5.70;;;16.00;1.00;;;;;;5113743;28;20270;-64
2021/06/01 06:12:37;;;;;;;5.80;5.20;;;16.20;1.00;;;;;;5113136;28;20190;-64
2021/06/01 06:15:08;;;;;;;5.80;4.73;;;16.20;1.00;;;;;;5113522;28;20947;-62
2021/06/01 06:17:36;;;;;;;9.63;5.77;;;16.30;1.00;;;;;;5113566;28;20170;-64
2021/06/01 06:20:04;;;;;;;8.93;6.40;;;16.30;1.00;;;;;;5103377;28;20474;-65
2021/06/01 06:22:30;;;;;;;8.60;6.13;;;16.40;1.00;;;;;;5089560;28;20474;-64
2021/06/01 06:24:55;;;;;;;7.50;5.50;;;16.60;1.00;;;;;;5112988;28;20436;-65
2021/06/01 06:27:21;;;;;;;10.27;5.47;;;16.80;1.00;;;;;;5094801;28;20652;-63
2021/06/01 06:29:47;;;;;;;7.70;5.67;;;16.80;1.00;;;;;;5113064;28;20639;-62
2021/06/01 06:32:12;;;;;;;7.60;4.97;;;17.10;1.00;;;;;;5112775;28;20178;-64
2021/06/01 06:34:38;;;;;;;5.57;4.80;;;17.30;1.00;;;;;;5112616;28;20194;-64
2021/06/01 06:37:04;;;;;;;10.47;5.57;;;17.50;1.00;;;;;;5112913;28;20702;-63
2021/06/01 06:39:31;;;;;;;6.00;5.37;;;17.70;1.00;;;;;;5112477;28;20213;-64
2021/06/01 06:41:57;;;;;;;6.30;5.63;;;17.80;1.00;;;;;;5113243;27;20462;-64
2021/06/01 06:44:23;;;;;;;8.13;5.43;;;17.60;1.00;;;;;;5112753;28;21097;-62
2021/06/01 06:47:04;;;;;;;7.53;6.17;;;18.10;1.00;;;;;;5113067;28;20506;-63
2021/06/01 06:49:32;;;;;;;8.03;5.27;;;18.00;1.00;;;;;;5109623;28;20178;-63
2021/06/01 06:51:57;;;;;;;6.93;6.10;;;17.70;1.00;;;;;;5112019;28;20444;-64
2021/06/01 06:54:23;;;;;;;9.03;6.37;;;17.90;1.00;;;;;;5112738;28;20502;-63
2021/06/01 06:56:48;;;;;;;10.77;5.93;;;18.10;1.00;;;;;;5112993;28;20182;-64
2021/06/01 06:59:15;;;;;;;11.10;6.53;;;18.30;1.00;;;;;;5093803;28;20666;-62
2021/06/01 07:01:42;;;;;;;6.33;5.03;;;18.60;1.00;;;;;;5112376;28;20486;-63
2021/06/01 07:04:07;;;;;;;6.83;5.40;;;18.70;1.00;;;;;;5112201;28;20492;-63
2021/06/01 07:06:33;;;;;;;8.77;6.03;;;18.80;1.00;;;;;;5112838;28;20436;-63
2021/06/01 07:08:58;;;;;;;8.30;5.80;;;19.00;1.00;;;;;;5112874;28;20240;-62
2021/06/01 07:11:24;;;;;;;8.60;6.37;;;19.20;1.00;;;;;;5111821;28;20205;-63
2021/06/01 07:13:51;;;;;;;6.90;5.60;;;19.20;1.00;;;;;;5112434;28;20213;-64
2021/06/01 07:16:17;;;;;;;9.70;6.33;;;19.10;1.00;;;;;;5111741;28;20272;-64
2021/06/01 07:18:43;;;;;;;10.73;6.17;;;18.90;1.00;;;;;;5110851;28;20469;-63
2021/06/01 07:21:11;;;;;;;7.07;6.20;;;19.00;1.00;;;;;;5111144;28;20458;-63
2021/06/01 07:23:38;;;;;;;6.33;5.73;;;19.20;1.00;;;;;;5110991;28;20227;-62
2021/06/01 07:26:05;;;;;;;6.43;4.53;;;19.50;1.00;;;;;;5111775;28;20477;-63
2021/06/01 07:28:30;;;;;;;10.30;5.30;;;20.00;1.00;;;;;;5094026;28;20468;-63
2021/06/01 07:31:00;;;;;;;6.37;5.20;;;20.10;1.00;;;;;;5111655;28;20844;-64
2021/06/01 07:33:25;;;;;;;7.17;5.83;;;20.20;1.00;;;;;;5111756;28;20186;-64
2021/06/01 07:35:51;;;;;;;6.33;5.17;;;20.10;1.00;;;;;;5108278;28;20448;-64
2021/06/01 07:38:16;;;;;;;5.50;5.00;;;19.90;1.00;;;;;;5105722;28;20276;-64
2021/06/01 07:40:42;;;;;;;7.10;5.67;;;19.90;1.00;;;;;;5104946;28;20205;-65
2021/06/01 07:43:08;;;;;;;10.03;5.33;;;19.90;1.00;;;;;;5111895;28;20636;-65
2021/06/01 07:45:33;;;;;;;6.63;5.80;;;19.90;1.00;;;;;;5087560;28;20270;-64
2021/06/01 07:47:59;;;;;;;5.80;4.63;;;20.10;1.00;;;;;;5111820;28;20182;-65
2021/06/01 07:50:26;;;;;;;6.97;4.63;;;20.30;1.00;;;;;;5111449;28;20652;-65
2021/06/01 07:52:51;;;;;;;6.43;5.27;;;20.40;1.00;;;;;;5111759;28;20500;-65
2021/06/01 07:55:17;;;;;;;6.00;5.17;;;20.60;1.00;;;;;;5111741;28;20443;-65
2021/06/01 07:57:43;;;;;;;5.30;4.80;;;20.80;1.00;;;;;;5111656;28;20643;-64
2021/06/01 08:00:10;;;;;;;7.93;5.50;;;20.90;1.00;;;;;;5111723;28;20435;-66
2021/06/01 08:02:36;;;;;;;6.73;4.70;;;21.00;1.00;;;;;;5110460;28;20281;-64
2021/06/01 08:05:01;;;;;;;6.40;4.60;;;21.20;1.00;;;;;;5111394;28;20530;-65
2021/06/01 08:07:27;;;;;;;5.27;4.60;;;21.20;1.00;;;;;;5111250;28;20179;-64
2021/06/01 08:09:52;;;;;;;5.07;4.10;;;21.50;1.00;;;;;;5111439;28;20177;-64
2021/06/01 08:12:18;;;;;;;4.33;3.93;;;21.50;1.00;;;;;;5093294;28;20180;-64
2021/06/01 08:14:44;;;;;;;5.30;4.53;;;21.30;1.00;;;;;;5111299;28;20227;-64
2021/06/01 08:17:10;;;;;;;4.60;4.10;;;21.30;1.00;;;;;;5093194;28;20196;-65
2021/06/01 08:19:44;;;;;;;3.87;3.57;;;21.40;1.00;;;;;;5111253;28;20182;-65
2021/06/01 08:24:36;;;;;;;4.43;3.70;;;22.00;1.00;;;;;;5111028;28;20451;-63
2021/06/01 08:27:02;;;;;;;4.10;3.70;;;22.20;1.00;;;;;;5109609;28;20201;-65
2021/06/01 08:29:27;;;;;;;4.40;3.57;;;22.20;1.00;;;;;;5111212;28;20439;-65
2021/06/01 08:31:53;;;;;;;4.37;3.63;;;22.60;1.00;;;;;;5110225;28;20436;-64
2021/06/01 08:34:18;;;;;;;5.97;3.70;;;22.40;1.00;;;;;;5109305;28;20271;-64
2021/06/01 08:36:44;;;;;;;6.67;3.80;;;23.90;1.00;;;;;;5110480;28;20186;-65
2021/06/01 08:39:11;;;;;;;4.13;3.60;;;22.30;1.00;;;;;;5109097;28;20240;-64
2021/06/01 08:41:37;;;;;;;4.10;3.60;;;22.70;1.00;;;;;;5090933;28;20560;-66
2021/06/01 08:44:04;;;;;;;4.00;3.60;;;22.60;1.00;;;;;;5106475;28;20504;-66
2021/06/01 08:46:31;;;;;;;5.03;4.00;;;23.20;1.00;;;;;;5110176;28;20508;-65
2021/06/01 08:48:58;;;;;;;7.43;3.83;;;23.30;1.00;;;;;;5110083;28;20429;-65
2021/06/01 08:51:25;;;;;;;5.20;3.90;;;23.00;1.00;;;;;;5107949;28;20763;-65
2021/06/01 08:53:55;;;;;;;5.63;3.83;;;23.20;1.00;;;;;;5090925;28;20691;-66
2021/06/01 08:56:21;;;;;;;3.40;3.10;;;23.20;1.00;;;;;;5104845;28;20423;-65
2021/06/01 08:58:49;;;;;;;6.70;3.73;;;23.20;1.00;;;;;;5089659;28;20523;-66
2021/06/01 09:01:19;;;;;;;4.17;3.57;;;23.30;1.00;;;;;;5110548;28;20465;-66
2021/06/01 09:03:49;;;;;;;4.40;3.90;;;23.20;1.00;;;;;;5109500;28;20533;-67
2021/06/01 09:06:20;;;;;;;5.60;3.90;;;23.60;1.00;;;;;;5091276;28;20829;-66
2021/06/01 09:09:01;;;;;;;6.10;3.97;;;23.70;1.00;;;;;;5103801;28;20414;-67
2021/06/01 09:22:32;;;;;;;5.93;3.73;;;23.60;1.00;;;;;;5103963;28;20512;-65
2021/06/01 09:25:22;;;;;;;5.27;3.70;;;23.80;1.00;;;;;;5093237;28;20447;-65
2021/06/01 09:27:51;;;;;;;4.17;3.77;;;24.40;1.00;;;;;;5109870;28;20436;-66
2021/06/01 09:30:36;;;;;;;3.97;3.23;;;24.70;1.00;;;;;;5088214;28;20402;-65
2021/06/01 09:33:04;;;;;;;5.10;3.37;;;25.00;1.00;;;;;;5105719;28;20428;-67
2021/06/01 09:35:47;;;;;;;4.70;3.10;;;25.00;1.00;;;;;;5109888;28;20422;-65
2021/06/01 09:38:14;;;;;;;4.20;3.80;;;24.70;1.00;;;;;;5108898;28;20792;-66
2021/06/01 09:40:40;;;;;;;7.07;3.60;;;24.60;1.00;;;;;;5105483;28;20555;-65
2021/06/01 09:43:07;;;;;;;3.27;3.00;;;24.50;1.00;;;;;;5081694;28;20414;-66
2021/06/01 09:45:33;;;;;;;3.40;3.13;;;24.40;1.00;;;;;;5110049;28;20471;-65
2021/06/01 09:48:01;;;;;;;3.43;3.13;;;24.30;1.00;;;;;;5102115;28;20509;-65
2021/06/01 09:51:00;;;;;;;4.03;3.63;;;24.40;1.00;;;;;;5103965;28;20973;-65
2021/06/01 09:53:31;;;;;;;5.03;3.70;;;23.80;1.00;;;;;;5082793;28;20431;-67
2021/06/01 09:55:58;;;;;;;3.97;3.67;;;23.80;1.00;;;;;;5109803;28;20439;-66
2021/06/01 09:58:35;;;;;;;3.00;2.80;;;24.30;1.00;;;;;;5109472;28;20462;-68
2021/06/01 10:01:03;;;;;;;4.53;3.33;;;24.00;1.00;;;;;;5101912;28;20955;-67
2021/06/01 10:03:42;;;;;;;4.43;3.30;;;24.10;1.00;;;;;;5108800;28;20515;-65
2021/06/01 10:06:08;;;;;;;4.27;3.30;;;24.50;1.00;;;;;;5089173;28;20924;-66
2021/06/01 10:08:43;;;;;;;5.50;4.20;;;24.80;1.00;;;;;;5109653;28;20543;-66
2021/06/01 10:11:11;;;;;;;4.60;3.43;;;24.50;1.00;;;;;;5094822;28;20536;-65
2021/06/01 10:13:38;;;;;;;4.47;3.40;;;24.10;1.00;;;;;;5102534;28;20508;-65
2021/06/01 10:16:10;;;;;;;4.50;3.27;;;24.30;1.00;;;;;;5101500;28;20526;-65
2021/06/01 10:18:39;;;;;;;8.70;3.50;;;25.00;1.00;;;;;;5111416;28;20469;-65
2021/06/01 10:21:07;;;;;;;4.10;3.70;;;25.30;1.00;;;;;;5104971;28;20482;-64
2021/06/01 10:23:35;;;;;;;4.23;3.80;;;25.20;1.00;;;;;;5094394;28;20934;-65
2021/06/01 10:26:02;;;;;;;4.67;3.60;;;25.50;1.00;;;;;;5079638;28;20423;-65
2021/06/01 10:28:31;;;;;;;3.60;3.30;;;25.60;1.00;;;;;;5095483;28;20806;-64
2021/06/01 10:30:58;;;;;;;3.70;3.40;;;25.30;1.00;;;;;;5112125;28;20448;-64
2021/06/01 10:33:27;;;;;;;4.17;3.87;;;25.20;1.00;;;;;;5101420;28;20887;-65
2021/06/01 10:36:29;;;;;;;4.37;3.20;;;24.80;1.00;;;;;;5114003;28;20410;-65
2021/06/01 10:51:04;;;;;;;6.63;3.53;;;25.30;1.00;;;;;;5106905;28;20433;-65
2021/06/01 10:53:40;;;;;;;4.37;3.20;;;25.20;1.00;;;;;;5109188;28;20495;-65
2021/06/01 10:56:08;;;;;;;3.77;3.30;;;24.80;1.00;;;;;;5109630;28;20482;-65
2021/06/01 10:58:41;;;;;;;3.97;3.67;;;24.80;1.00;;;;;;5101764;28;20414;-66
2021/06/01 11:04:05;;;;;;;4.00;3.60;;;24.80;1.00;;;;;;5112553;28;20800;-65
2021/06/01 11:06:59;;;;;;;3.67;3.47;;;24.80;1.00;;;;;;5084461;28;20797;-66
2021/06/01 11:09:31;;;;;;;4.97;3.70;;;24.60;1.00;;;;;;5110757;28;20442;-66
2021/06/01 11:12:01;;;;;;;4.03;3.50;;;24.80;1.00;;;;;;5112334;28;20435;-66
2021/06/01 11:14:32;;;;;;;4.50;4.00;;;24.80;1.00;;;;;;5112414;28;20455;-65
2021/06/01 11:16:59;;;;;;;5.50;3.70;;;25.10;1.00;;;;;;5112482;28;20443;-66
2021/06/01 11:19:44;;;;;;;5.07;4.57;;;25.10;1.00;;;;;;5106897;28;20435;-66
2021/06/01 11:22:31;;;;;;;4.40;4.10;;;25.10;1.00;;;;;;5093213;28;20555;-64
2021/06/01 11:33:34;;;;;;;4.53;3.87;;;24.70;1.00;;;;;;5092784;28;20794;-65
2021/06/01 11:36:05;;;;;;;4.30;3.90;;;25.20;1.00;;;;;;5107603;28;20440;-65
2021/06/01 11:38:59;;;;;;;5.13;4.63;;;25.80;1.00;;;;;;5091964;28;20302;-66
2021/06/01 11:44:21;;;;;;;6.03;4.10;;;26.10;1.00;;;;;;5111658;28;20454;-64
2021/06/01 11:52:03;;;;;;;5.10;4.60;;;26.70;1.00;;;;;;5110966;28;20447;-65
2021/06/01 11:54:29;;;;;;;4.13;3.80;;;26.40;1.00;;;;;;5109179;28;20444;-65
2021/06/01 12:13:14;;;;;;;4.60;4.20;;;25.10;1.00;;;;;;5091834;28;20424;-64
2021/06/01 12:18:38;;;;;;;6.87;4.73;;;24.80;1.00;;;;;;5111356;28;20512;-64
2021/06/01 12:21:06;;;;;;;4.23;3.93;;;24.90;1.00;;;;;;5111837;28;20946;-64
2021/06/01 12:23:34;;;;;;;5.40;4.90;;;24.80;1.00;;;;;;5111671;28;20465;-65
2021/06/01 12:26:07;;;;;;;5.40;4.20;;;24.80;1.00;;;;;;5111092;28;20432;-65
2021/06/01 12:31:30;;;;;;;4.50;3.57;;;25.50;1.00;;;;;;5037929;28;21071;-65
2021/06/01 12:34:00;;;;;;;4.47;3.90;;;25.50;1.00;;;;;;5104997;28;20507;-65
2021/06/01 12:45:38;;;;;;;4.83;4.30;;;26.30;1.00;;;;;;5111189;28;20898;-66
2021/06/01 13:21:38;;;;;;;5.00;3.73;;;25.60;1.00;;;;;;5110720;28;20470;-65
2021/06/01 13:36:20;;;;;;;3.97;3.63;;;26.60;1.00;;;;;;5110471;28;20482;-64
2021/06/01 13:46:41;;;;;;;5.70;3.90;;;26.50;1.00;;;;;;5105259;28;20431;-64
2021/06/01 13:49:30;;;;;;;6.77;3.97;;;26.30;1.00;;;;;;5090260;28;20755;-65
2021/06/01 13:57:10;;;;;;;4.33;4.00;;;25.90;1.00;;;;;;5109717;28;20246;-66
2021/06/01 14:21:17;;;;;;;3.87;3.57;;;28.70;1.00;;;;;;5113640;28;20532;-64
2021/06/01 15:24:20;;;;;;;4.57;4.17;;;35.00;1.00;;;;;;5113031;28;21051;-67
2021/06/01 15:29:26;;;;;;;4.97;3.73;;;34.70;1.00;;;;;;5065318;28;20395;-65
2021/06/01 17:05:10;;;;;;;4.07;3.17;;;22.70;1.00;;;;;;5111120;28;20469;-66
2021/06/01 17:13:03;;;;;;;1.80;1.60;;;22.60;1.00;;;;;;5110584;28;20535;-63
2021/06/01 17:15:30;;;;;;;1.73;1.20;;;22.50;1.00;;;;;;5110078;28;20527;-65
2021/06/01 17:18:07;;;;;;;1.80;1.50;;;22.50;1.00;;;;;;5092923;28;20453;-65
2021/06/01 17:23:49;;;;;;;2.10;1.20;;;22.40;1.00;;;;;;5068463;28;20917;-65
2021/06/01 17:32:13;;;;;;;2.10;1.70;;;22.70;1.00;;;;;;5110794;28;20417;-64
2021/06/01 17:34:54;;;;;;;2.27;1.70;;;22.80;1.00;;;;;;5109763;28;20451;-65
2021/06/01 17:37:20;;;;;;;1.67;1.57;;;22.80;1.00;;;;;;5108769;28;20476;-65
2021/06/01 17:39:46;;;;;;;1.73;1.43;;;22.90;1.00;;;;;;5111988;28;20470;-65
2021/06/01 17:42:16;;;;;;;2.30;1.40;;;22.90;1.00;;;;;;5114826;28;20467;-65
2021/06/01 17:44:42;;;;;;;1.60;1.50;;;23.00;1.00;;;;;;5087818;28;20277;-65
2021/06/01 17:47:13;;;;;;;1.77;1.10;;;23.10;1.00;;;;;;5110040;28;20460;-64
2021/06/01 17:49:40;;;;;;;2.33;1.60;;;23.00;1.00;;;;;;5095893;28;20448;-65
2021/06/01 17:52:06;;;;;;;1.90;1.70;;;22.90;1.00;;;;;;5113843;28;20588;-64
2021/06/01 17:54:34;;;;;;;1.70;1.30;;;22.80;1.00;;;;;;5113932;28;20987;-65
2021/06/01 17:57:01;;;;;;;2.27;1.83;;;22.70;1.00;;;;;;5114435;28;20653;-64
2021/06/01 17:59:27;;;;;;;1.70;1.30;;;22.70;1.00;;;;;;5111435;27;20447;-65
2021/06/01 18:01:54;;;;;;;2.30;1.83;;;22.70;1.00;;;;;;5114052;28;20558;-64
2021/06/01 18:04:25;;;;;;;2.30;1.97;;;22.60;1.00;;;;;;5113876;28;20418;-64
2021/06/01 18:07:01;;;;;;;1.97;1.60;;;22.60;1.00;;;;;;5109804;28;20612;-65
2021/06/01 18:59:58;;;;;;;4.37;3.17;;;21.10;1.00;;;;;;5113532;28;20931;-64
2021/06/01 19:50:46;;;;;;;3.97;3.40;;;19.40;1.00;;;;;;5097189;28;20463;-64
2021/06/01 19:53:15;;;;;;;3.40;3.10;;;19.40;1.00;;;;;;5107232;28;20862;-64
2021/06/01 19:55:41;;;;;;;3.43;3.10;;;19.40;1.00;;;;;;5110449;28;20447;-64
2021/06/01 19:58:07;;;;;;;5.43;4.17;;;19.40;1.00;;;;;;5082598;28;20432;-64
2021/06/01 20:00:34;;;;;;;4.07;3.73;;;19.30;1.00;;;;;;5100814;28;20444;-65
2021/06/01 20:03:00;;;;;;;4.00;3.60;;;19.30;1.00;;;;;;5111855;28;20474;-65
2021/06/01 20:05:27;;;;;;;5.13;3.47;;;19.20;1.00;;;;;;5110542;28;20432;-65
2021/06/01 20:07:53;;;;;;;3.80;3.50;;;19.20;1.00;;;;;;5110901;28;20948;-64
2021/06/01 20:10:19;;;;;;;5.07;2.90;;;19.10;1.00;;;;;;5111634;28;20442;-64
2021/06/01 20:12:45;;;;;;;4.73;4.33;;;19.10;1.00;;;;;;5092806;28;20786;-64
2021/06/01 20:15:13;;;;;;;4.10;3.70;;;19.10;1.00;;;;;;5106036;28;20184;-65
2021/06/01 20:17:43;;;;;;;4.30;3.30;;;19.20;1.00;;;;;;5110764;28;20182;-65